createdAt,value
2023-12-30T00:01:32.608Z,9.53
2023-12-30T00:04:00.619Z,9.68
2023-12-30T00:06:30.321Z,9.81
2023-12-30T00:08:58.066Z,9.82
2023-12-30T00:11:26.711Z,9.76
2023-12-30T00:13:54.872Z,9.71
2023-12-30T00:16:22.715Z,9.70
2023-12-30T00:18:50.677Z,9.63
2023-12-30T00:21:20.848Z,9.56
2023-12-30T00:23:50.091Z,9.61
2023-12-30T00:26:21.591Z,9.59
2023-12-30T00:29:01.563Z,9.55
2023-12-30T00:31:30.923Z,9.53
2023-12-30T00:34:00.598Z,9.60
2023-12-30T00:36:29.038Z,9.58
2023-12-30T00:38:58.497Z,9.72
2023-12-30T00:41:27.792Z,9.97
2023-12-30T00:43:55.606Z,9.79
2023-12-30T00:46:23.677Z,9.81
2023-12-30T00:48:57.221Z,9.73
2023-12-30T00:51:27.201Z,9.51
2023-12-30T00:53:55.612Z,9.75
2023-12-30T00:56:25.008Z,9.57
2023-12-30T00:58:52.981Z,9.39
2023-12-30T01:01:21.026Z,9.22
2023-12-30T01:03:49.338Z,9.12
2023-12-30T01:06:17.544Z,9.14
2023-12-30T01:08:45.557Z,9.07
2023-12-30T01:11:13.769Z,9.02
2023-12-30T01:13:43.383Z,8.91
2023-12-30T01:16:11.237Z,8.78
2023-12-30T01:18:39.498Z,8.75
2023-12-30T01:21:07.408Z,8.67
2023-12-30T01:23:35.773Z,8.59
2023-12-30T01:26:03.792Z,8.50
2023-12-30T01:28:32.873Z,8.52
2023-12-30T01:31:02.188Z,8.52
2023-12-30T01:33:30.420Z,8.44
2023-12-30T01:36:00.042Z,8.27
2023-12-30T01:38:27.757Z,8.15
2023-12-30T01:40:56.803Z,8.07
2023-12-30T01:43:26.622Z,8.13
2023-12-30T01:45:58.572Z,8.21
2023-12-30T01:48:29.835Z,8.28
2023-12-30T01:50:59.565Z,8.42
2023-12-30T01:53:29.016Z,8.82
2023-12-30T01:55:58.274Z,8.79
2023-12-30T01:58:27.548Z,8.92
2023-12-30T02:00:58.095Z,9.18
2023-12-30T02:03:29.248Z,9.44
2023-12-30T02:05:58.256Z,9.10
2023-12-30T02:08:27.704Z,9.08
2023-12-30T02:10:56.586Z,9.02
2023-12-30T02:13:26.434Z,9.21
2023-12-30T02:15:54.996Z,9.06
2023-12-30T02:18:23.370Z,9.33
2023-12-30T02:20:53.892Z,9.53
2023-12-30T02:23:23.499Z,9.20
2023-12-30T02:25:52.188Z,8.99
2023-12-30T02:28:21.392Z,8.93
2023-12-30T02:30:50.385Z,9.06
2023-12-30T02:33:19.021Z,9.01
2023-12-30T02:35:48.465Z,8.93
2023-12-30T02:38:16.925Z,8.97
2023-12-30T02:40:46.945Z,9.01
2023-12-30T02:43:15.687Z,9.09
2023-12-30T02:45:44.469Z,9.12
2023-12-30T02:48:12.902Z,9.22
2023-12-30T02:50:41.592Z,9.09
2023-12-30T02:53:09.873Z,8.89
2023-12-30T02:55:38.240Z,9.19
2023-12-30T02:58:08.818Z,8.90
2023-12-30T03:00:38.329Z,8.92
2023-12-30T03:03:07.081Z,9.11
2023-12-30T03:05:36.537Z,9.12
2023-12-30T03:08:06.220Z,9.11
2023-12-30T03:10:35.547Z,8.88
2023-12-30T03:13:05.466Z,9.13
2023-12-30T03:15:36.930Z,9.05
2023-12-30T03:18:05.798Z,8.88
2023-12-30T03:20:34.636Z,9.01
2023-12-30T03:23:03.238Z,8.92
2023-12-30T03:25:34.618Z,8.90
2023-12-30T03:28:03.821Z,8.92
2023-12-30T03:30:33.016Z,8.91
2023-12-30T03:33:02.953Z,8.82
2023-12-30T03:35:33.422Z,8.74
2023-12-30T03:38:01.910Z,8.60
2023-12-30T03:40:30.197Z,8.52
2023-12-30T03:42:59.895Z,8.58
2023-12-30T03:45:28.596Z,8.63
2023-12-30T03:47:56.996Z,8.71
2023-12-30T03:50:27.892Z,8.60
2023-12-30T03:52:56.174Z,8.53
2023-12-30T03:55:24.587Z,8.71
2023-12-30T03:57:54.985Z,8.74
2023-12-30T04:00:24.094Z,8.77
2023-12-30T04:02:52.306Z,9.08
2023-12-30T04:05:20.881Z,8.82
2023-12-30T04:07:51.580Z,8.86
2023-12-30T04:10:20.680Z,8.99
2023-12-30T04:12:49.825Z,8.92
2023-12-30T04:15:18.258Z,8.74
2023-12-30T04:17:47.066Z,8.78
2023-12-30T04:20:15.958Z,9.06
2023-12-30T04:22:44.400Z,8.99
2023-12-30T04:25:15.344Z,8.77
2023-12-30T04:27:44.839Z,8.91
2023-12-30T04:30:14.350Z,9.08
2023-12-30T04:32:43.224Z,8.95
2023-12-30T04:35:12.747Z,8.96
2023-12-30T04:37:40.811Z,8.87
2023-12-30T04:40:10.220Z,8.84
2023-12-30T04:42:40.647Z,8.96
2023-12-30T04:45:13.878Z,8.72
2023-12-30T04:47:43.023Z,8.68
2023-12-30T04:50:11.420Z,8.58
2023-12-30T04:52:39.516Z,8.59
2023-12-30T04:55:08.990Z,8.63
2023-12-30T04:57:37.069Z,8.89
2023-12-30T05:00:08.808Z,9.03
2023-12-30T05:02:37.223Z,9.24
2023-12-30T05:05:07.238Z,9.34
2023-12-30T05:07:35.682Z,9.32
2023-12-30T05:10:04.564Z,9.12
2023-12-30T05:12:32.869Z,9.04
2023-12-30T05:15:01.060Z,9.23
2023-12-30T05:17:33.855Z,9.45
2023-12-30T05:20:02.292Z,9.19
2023-12-30T05:22:30.914Z,9.07
2023-12-30T05:24:59.243Z,9.25
2023-12-30T05:27:27.501Z,9.11
2023-12-30T05:29:56.252Z,9.10
2023-12-30T05:32:24.527Z,8.88
2023-12-30T05:34:54.969Z,9.02
2023-12-30T05:37:23.364Z,9.11
2023-12-30T05:39:52.289Z,9.15
2023-12-30T05:42:20.628Z,9.41
2023-12-30T05:44:49.410Z,9.67
2023-12-30T05:47:18.272Z,9.43
2023-12-30T05:49:47.601Z,9.43
2023-12-30T05:52:17.289Z,9.36
2023-12-30T05:54:46.695Z,9.75
2023-12-30T05:57:16.168Z,9.66
2023-12-30T05:59:44.436Z,9.59
2023-12-30T06:02:13.172Z,9.65
2023-12-30T06:04:42.529Z,9.78
2023-12-30T06:07:12.000Z,9.79
2023-12-30T06:09:43.050Z,9.46
2023-12-30T06:12:11.508Z,9.65
2023-12-30T06:14:41.680Z,9.63
2023-12-30T06:17:10.000Z,9.48
2023-12-30T06:19:38.886Z,9.47
2023-12-30T06:22:07.795Z,9.52
2023-12-30T06:24:36.503Z,9.52
2023-12-30T06:27:06.970Z,9.51
2023-12-30T06:29:35.450Z,9.54
2023-12-30T06:32:04.507Z,9.55
2023-12-30T06:34:34.007Z,9.54
2023-12-30T06:37:03.612Z,9.70
2023-12-30T06:39:32.171Z,9.59
2023-12-30T06:42:02.015Z,9.37
2023-12-30T06:44:31.623Z,9.16
2023-12-30T06:47:00.261Z,9.01
2023-12-30T06:49:28.314Z,9.05
2023-12-30T06:51:57.353Z,8.97
2023-12-30T06:54:26.354Z,8.93
2023-12-30T06:56:54.982Z,8.94
2023-12-30T06:59:24.334Z,8.99
2023-12-30T07:01:55.071Z,8.95
2023-12-30T07:04:27.566Z,8.92
2023-12-30T07:06:55.485Z,9.06
2023-12-30T07:09:24.655Z,8.98
2023-12-30T07:11:52.589Z,9.07
2023-12-30T07:14:20.616Z,8.91
2023-12-30T07:16:51.146Z,8.96
2023-12-30T07:19:20.674Z,8.95
2023-12-30T07:21:49.242Z,8.95
2023-12-30T07:24:17.132Z,8.98
2023-12-30T07:26:45.484Z,8.98
2023-12-30T07:29:13.791Z,9.05
2023-12-30T07:31:41.921Z,9.10
2023-12-30T07:34:10.005Z,9.14
2023-12-30T07:36:40.667Z,9.12
2023-12-30T07:39:09.627Z,9.10
2023-12-30T07:41:38.557Z,9.09
2023-12-30T07:44:07.654Z,9.19
2023-12-30T07:46:35.841Z,9.21
2023-12-30T07:49:04.316Z,9.18
2023-12-30T07:51:32.276Z,9.14
2023-12-30T07:54:01.392Z,9.15
2023-12-30T07:56:29.085Z,9.15
2023-12-30T07:58:56.765Z,9.16
2023-12-30T08:01:25.530Z,9.23
2023-12-30T08:03:53.879Z,9.27
2023-12-30T08:06:21.675Z,9.27
2023-12-30T08:08:49.957Z,9.18
2023-12-30T08:11:19.189Z,9.21
2023-12-30T08:13:46.870Z,9.05
2023-12-30T08:16:14.735Z,9.06
2023-12-30T08:18:42.808Z,9.06
2023-12-30T08:21:10.762Z,9.03
2023-12-30T08:23:39.174Z,9.01
2023-12-30T08:26:07.426Z,9.12
2023-12-30T08:28:37.370Z,9.21
2023-12-30T08:31:05.457Z,9.22
2023-12-30T08:33:33.915Z,9.29
2023-12-30T08:36:01.748Z,9.36
2023-12-30T08:38:32.911Z,9.37
2023-12-30T08:41:01.045Z,9.50
2023-12-30T08:43:29.295Z,9.56
2023-12-30T08:45:59.198Z,9.55
2023-12-30T08:48:27.337Z,9.62
2023-12-30T08:50:55.443Z,9.59
2023-12-30T08:53:26.052Z,9.58
2023-12-30T08:55:54.951Z,9.58
2023-12-30T08:58:25.296Z,9.58
2023-12-30T09:00:54.359Z,9.79
2023-12-30T09:03:24.145Z,9.66
2023-12-30T09:05:52.067Z,9.65
2023-12-30T09:08:20.391Z,9.69
2023-12-30T09:10:48.366Z,9.80
2023-12-30T09:13:16.241Z,9.77
2023-12-30T09:15:44.093Z,9.88
2023-12-30T09:18:14.960Z,9.89
2023-12-30T09:20:45.587Z,10.08
2023-12-30T09:23:13.819Z,10.01
2023-12-30T09:25:41.596Z,10.04
2023-12-30T09:28:09.454Z,10.13
2023-12-30T09:30:37.764Z,10.12
2023-12-30T09:33:08.360Z,10.07
2023-12-30T09:35:38.028Z,10.09
2023-12-30T09:38:07.559Z,10.10
2023-12-30T09:40:36.079Z,10.13
2023-12-30T09:43:07.308Z,10.01
2023-12-30T09:45:39.181Z,10.01
2023-12-30T09:48:10.606Z,10.15
2023-12-30T09:50:38.876Z,10.32
2023-12-30T09:53:07.945Z,10.25
2023-12-30T09:55:35.707Z,10.25
2023-12-30T09:58:04.748Z,10.26
2023-12-30T10:00:33.991Z,10.49
2023-12-30T10:03:04.655Z,10.34
2023-12-30T10:05:32.887Z,10.33
2023-12-30T10:08:00.857Z,10.47
2023-12-30T10:10:44.632Z,10.45
2023-12-30T10:13:13.807Z,10.44
2023-12-30T10:15:43.390Z,10.41
2023-12-30T10:18:11.743Z,10.39
2023-12-30T10:20:43.363Z,10.40
2023-12-30T10:23:11.574Z,10.42
2023-12-30T10:25:39.662Z,10.54
2023-12-30T10:28:09.206Z,10.51
2023-12-30T10:30:37.526Z,10.54
2023-12-30T10:33:10.718Z,10.48
2023-12-30T10:35:40.959Z,10.40
2023-12-30T10:38:09.537Z,10.38
2023-12-30T10:40:37.584Z,10.46
2023-12-30T10:43:05.894Z,10.42
2023-12-30T10:45:35.627Z,10.50
2023-12-30T10:48:05.870Z,10.56
2023-12-30T10:50:35.013Z,10.49
2023-12-30T10:53:08.463Z,10.50
2023-12-30T10:55:38.288Z,10.48
2023-12-30T10:58:14.788Z,10.44
2023-12-30T11:00:45.288Z,10.32
2023-12-30T11:03:14.066Z,10.39
2023-12-30T11:06:30.011Z,10.40
2023-12-30T11:09:08.707Z,10.73
2023-12-30T11:11:42.150Z,10.36
2023-12-30T11:14:13.697Z,10.28
2023-12-30T11:16:42.804Z,10.25
2023-12-30T11:19:11.026Z,10.20
2023-12-30T11:21:43.854Z,10.22
2023-12-30T11:24:13.681Z,10.24
2023-12-30T11:26:45.944Z,10.35
2023-12-30T11:29:16.133Z,10.34
2023-12-30T11:31:46.542Z,10.38
2023-12-30T11:34:16.378Z,10.42
2023-12-30T11:36:44.737Z,10.43
2023-12-30T11:39:17.092Z,10.40
2023-12-30T11:41:45.107Z,10.44
2023-12-30T11:44:13.007Z,10.57
2023-12-30T11:46:42.732Z,10.65
2023-12-30T11:49:11.840Z,10.60
2023-12-30T11:51:39.585Z,10.64
2023-12-30T11:54:07.524Z,10.68
2023-12-30T11:56:35.959Z,10.80
2023-12-30T11:59:04.825Z,10.91
2023-12-30T12:01:34.377Z,10.88
2023-12-30T12:04:02.322Z,10.76
2023-12-30T12:06:32.620Z,10.85
2023-12-30T12:09:03.506Z,10.84
2023-12-30T12:11:32.049Z,10.73
2023-12-30T12:14:00.073Z,10.82
2023-12-30T12:16:30.260Z,11.01
2023-12-30T12:19:00.894Z,10.78
2023-12-30T12:21:29.209Z,10.86
2023-12-30T12:23:58.407Z,10.86
2023-12-30T12:26:26.898Z,10.98
2023-12-30T12:28:56.410Z,11.20
2023-12-30T12:31:24.262Z,11.54
2023-12-30T12:33:52.374Z,11.49
2023-12-30T12:36:20.579Z,11.35
2023-12-30T12:38:50.848Z,11.32
2023-12-30T12:41:20.070Z,11.28
2023-12-30T12:43:47.929Z,11.24
2023-12-30T12:46:16.373Z,11.25
2023-12-30T12:48:44.330Z,11.36
2023-12-30T12:51:12.223Z,11.44
2023-12-30T12:53:40.807Z,11.24
2023-12-30T12:56:09.853Z,11.14
2023-12-30T12:58:39.562Z,11.13
2023-12-30T13:01:08.643Z,11.09
2023-12-30T13:03:37.117Z,11.04
2023-12-30T13:06:13.581Z,11.11
2023-12-30T13:08:42.659Z,11.24
2023-12-30T13:11:10.764Z,11.30
2023-12-30T13:13:39.900Z,11.31
2023-12-30T13:16:08.358Z,11.36
2023-12-30T13:18:36.117Z,11.25
2023-12-30T13:21:07.247Z,11.26
2023-12-30T13:23:35.414Z,11.09
2023-12-30T13:26:05.906Z,11.09
2023-12-30T13:28:34.492Z,11.07
2023-12-30T13:31:06.782Z,10.95
2023-12-30T13:33:37.441Z,10.83
2023-12-30T13:38:56.096Z,10.71
2023-12-30T13:41:49.394Z,10.75
2023-12-30T13:44:17.272Z,10.83
2023-12-30T13:47:01.578Z,10.65
2023-12-30T13:50:00.840Z,10.61
2023-12-30T13:52:30.021Z,10.52
2023-12-30T13:54:58.677Z,10.52
2023-12-30T13:57:29.940Z,10.57
2023-12-30T14:00:02.817Z,10.45
2023-12-30T14:02:40.344Z,10.51
2023-12-30T14:05:17.054Z,10.58
2023-12-30T14:07:45.267Z,10.62
2023-12-30T14:10:19.357Z,10.51
2023-12-30T14:12:49.957Z,10.34
2023-12-30T14:15:21.593Z,10.31
2023-12-30T14:20:50.569Z,10.30
2023-12-30T14:23:20.676Z,10.27
2023-12-30T14:25:50.080Z,10.36
2023-12-30T14:28:18.391Z,10.47
2023-12-30T14:30:49.567Z,10.50
2023-12-30T14:33:21.972Z,10.50
2023-12-30T14:35:50.352Z,10.50
2023-12-30T14:38:19.761Z,10.47
2023-12-30T14:40:48.293Z,10.47
2023-12-30T14:43:17.523Z,10.49
2023-12-30T14:45:49.981Z,10.51
2023-12-30T14:48:19.442Z,10.51
2023-12-30T14:50:47.407Z,10.69
2023-12-30T14:53:15.691Z,10.90
2023-12-30T14:55:43.925Z,10.87
2023-12-30T14:58:12.052Z,10.90
2023-12-30T15:00:40.130Z,10.95
2023-12-30T15:03:08.441Z,10.94
2023-12-30T15:05:40.067Z,10.86
2023-12-30T15:08:08.919Z,10.63
2023-12-30T15:10:37.694Z,10.59
2023-12-30T15:13:06.814Z,10.57
2023-12-30T15:15:35.760Z,10.53
2023-12-30T15:18:07.318Z,10.62
2023-12-30T15:20:35.400Z,10.70
2023-12-30T15:23:05.519Z,10.54
2023-12-30T15:25:34.861Z,10.37
2023-12-30T15:28:04.979Z,10.19
2023-12-30T15:30:33.143Z,10.00
2023-12-30T15:33:01.692Z,9.94
2023-12-30T15:35:30.618Z,10.02
2023-12-30T15:37:59.899Z,9.88
2023-12-30T15:40:29.605Z,9.68
2023-12-30T15:42:58.229Z,9.54
2023-12-30T15:45:26.805Z,9.39
2023-12-30T15:47:54.818Z,9.32
2023-12-30T15:50:24.232Z,9.23
2023-12-30T15:52:52.533Z,9.24
2023-12-30T15:55:21.031Z,9.20
2023-12-30T15:57:51.482Z,9.13
2023-12-30T16:00:20.314Z,9.03
2023-12-30T16:02:49.324Z,8.86
2023-12-30T16:05:17.379Z,8.89
2023-12-30T16:07:45.649Z,8.75
2023-12-30T16:10:13.772Z,8.63
2023-12-30T16:12:41.783Z,8.55
2023-12-30T16:15:12.255Z,8.58
2023-12-30T16:17:40.439Z,8.52
2023-12-30T16:20:10.743Z,8.45
2023-12-30T16:22:39.471Z,8.36
2023-12-30T16:25:08.177Z,8.29
2023-12-30T16:27:36.186Z,8.25
2023-12-30T16:30:05.131Z,8.09
2023-12-30T16:32:34.612Z,7.90
2023-12-30T16:35:02.804Z,7.85
2023-12-30T16:37:31.014Z,7.73
2023-12-30T16:40:00.090Z,7.57
2023-12-30T16:42:28.017Z,7.49
2023-12-30T16:44:55.900Z,7.44
2023-12-30T16:47:24.195Z,7.51
2023-12-30T16:49:53.559Z,7.64
2023-12-30T16:52:21.482Z,7.76
2023-12-30T16:54:49.878Z,7.85
2023-12-30T16:57:17.833Z,7.92
2023-12-30T16:59:48.700Z,7.90
2023-12-30T17:02:16.556Z,7.57
2023-12-30T17:04:44.584Z,7.62
2023-12-30T17:07:14.157Z,7.77
2023-12-30T17:09:43.906Z,7.82
2023-12-30T17:12:11.761Z,7.93
2023-12-30T17:14:39.826Z,8.02
2023-12-30T17:17:08.250Z,8.04
2023-12-30T17:19:36.153Z,7.96
2023-12-30T17:22:04.081Z,7.89
2023-12-30T17:24:34.286Z,7.92
2023-12-30T17:27:04.283Z,7.99
2023-12-30T17:29:33.741Z,8.04
2023-12-30T17:32:01.678Z,8.09
2023-12-30T17:34:29.411Z,8.25
2023-12-30T17:36:57.785Z,8.28
2023-12-30T17:39:26.798Z,8.40
2023-12-30T17:41:56.284Z,8.34
2023-12-30T17:44:24.535Z,8.44
2023-12-30T17:46:52.277Z,8.15
2023-12-30T17:49:20.450Z,7.93
2023-12-30T17:51:48.254Z,7.69
2023-12-30T17:54:16.155Z,7.78
2023-12-30T17:56:43.843Z,7.59
2023-12-30T17:59:13.900Z,7.71
2023-12-30T18:01:42.007Z,7.73
2023-12-30T18:04:10.037Z,7.59
2023-12-30T18:06:39.113Z,7.48
2023-12-30T18:09:07.356Z,7.32
2023-12-30T18:11:37.323Z,7.23
2023-12-30T18:14:05.202Z,7.12
2023-12-30T18:16:34.884Z,7.10
2023-12-30T18:19:02.727Z,7.24
2023-12-30T18:21:30.843Z,7.27
2023-12-30T18:23:58.686Z,7.07
2023-12-30T18:26:26.475Z,6.81
2023-12-30T18:28:54.249Z,6.72
2023-12-30T18:31:22.308Z,6.59
2023-12-30T18:33:53.607Z,6.54
2023-12-30T18:36:21.676Z,6.51
2023-12-30T18:38:49.441Z,6.64
2023-12-30T18:41:17.298Z,6.74
2023-12-30T18:43:45.205Z,6.91
2023-12-30T18:46:13.549Z,7.00
2023-12-30T18:48:41.594Z,7.04
2023-12-30T18:51:11.786Z,7.01
2023-12-30T18:53:39.649Z,6.96
2023-12-30T18:56:07.846Z,7.04
2023-12-30T18:58:35.643Z,7.17
2023-12-30T19:01:03.975Z,7.11
2023-12-30T19:03:32.218Z,7.07
2023-12-30T19:06:00.010Z,7.07
2023-12-30T19:08:31.392Z,7.02
2023-12-30T19:10:59.694Z,7.01
2023-12-30T19:13:27.698Z,7.06
2023-12-30T19:15:56.036Z,7.07
2023-12-30T19:18:24.490Z,7.18
2023-12-30T19:20:54.879Z,7.16
2023-12-30T19:23:22.810Z,7.12
2023-12-30T19:25:52.262Z,7.18
2023-12-30T19:28:20.703Z,7.32
2023-12-30T19:30:48.652Z,7.33
2023-12-30T19:33:16.914Z,7.37
2023-12-30T19:35:45.412Z,7.43
2023-12-30T19:38:13.652Z,7.38
2023-12-30T19:40:45.802Z,7.33
2023-12-30T19:43:16.173Z,7.36
2023-12-30T19:45:44.361Z,7.10
2023-12-30T19:48:12.438Z,7.01
2023-12-30T19:50:44.308Z,6.98
2023-12-30T19:53:14.193Z,7.07
2023-12-30T19:55:42.192Z,7.19
2023-12-30T19:58:10.508Z,7.23
2023-12-30T20:00:39.890Z,7.33
2023-12-30T20:03:12.032Z,7.33
2023-12-30T20:05:40.200Z,7.33
2023-12-30T20:08:08.524Z,7.37
2023-12-30T20:10:36.623Z,7.36
2023-12-30T20:13:06.318Z,7.27
2023-12-30T20:15:35.495Z,7.28
2023-12-30T20:18:05.952Z,7.32
2023-12-30T20:20:34.189Z,7.32
2023-12-30T20:23:02.225Z,7.22
2023-12-30T20:25:32.157Z,7.17
2023-12-30T20:28:01.303Z,7.19
2023-12-30T20:30:29.263Z,7.14
2023-12-30T20:32:57.147Z,7.11
2023-12-30T20:35:26.728Z,7.02
2023-12-30T20:37:55.048Z,6.95
2023-12-30T20:40:23.397Z,6.91
2023-12-30T20:42:51.840Z,6.86
2023-12-30T20:45:19.818Z,6.78
2023-12-30T20:47:47.783Z,6.68
2023-12-30T20:50:15.721Z,6.59
2023-12-30T20:52:44.991Z,6.56
2023-12-30T20:55:15.283Z,6.57
2023-12-30T20:57:43.425Z,6.54
2023-12-30T21:00:14.292Z,6.52
2023-12-30T21:02:43.243Z,6.55
2023-12-30T21:05:11.664Z,6.55
2023-12-30T21:07:39.553Z,6.57
2023-12-30T21:10:10.269Z,6.56
2023-12-30T21:12:38.245Z,6.52
2023-12-30T21:15:07.069Z,6.53
2023-12-30T21:17:35.373Z,6.55
2023-12-30T21:20:06.113Z,6.58
2023-12-30T21:22:33.940Z,6.62
2023-12-30T21:25:11.507Z,6.62
2023-12-30T21:27:45.695Z,6.68
2023-12-30T21:30:14.607Z,6.77
2023-12-30T21:32:42.523Z,6.71
2023-12-30T21:35:11.793Z,6.60
2023-12-30T21:37:45.442Z,6.56
2023-12-30T21:40:16.339Z,6.57
2023-12-30T21:42:45.681Z,6.65
2023-12-30T21:45:13.493Z,6.66
2023-12-30T21:47:41.644Z,6.69
2023-12-30T21:50:11.148Z,6.74
2023-12-30T21:52:39.686Z,6.71
2023-12-30T21:55:08.534Z,6.63
2023-12-30T21:57:36.546Z,6.50
2023-12-30T22:00:06.791Z,6.48
2023-12-30T22:02:35.523Z,6.37
2023-12-30T22:05:03.573Z,6.35
2023-12-30T22:07:31.952Z,6.27
2023-12-30T22:10:00.833Z,6.16
2023-12-30T22:12:32.247Z,6.08
2023-12-30T22:15:00.651Z,6.00
2023-12-30T22:17:29.944Z,6.02
2023-12-30T22:19:59.730Z,5.95
2023-12-30T22:22:27.755Z,5.93
2023-12-30T22:24:55.729Z,5.93
2023-12-30T22:27:23.593Z,5.93
2023-12-30T22:29:51.543Z,5.87
2023-12-30T22:32:19.715Z,5.86
2023-12-30T22:34:49.306Z,5.85
2023-12-30T22:37:17.706Z,5.92
2023-12-30T22:39:45.685Z,5.93
2023-12-30T22:42:13.503Z,6.01
2023-12-30T22:44:41.385Z,6.18
2023-12-30T22:47:09.178Z,6.29
2023-12-30T22:49:39.156Z,6.26
2023-12-30T22:52:09.177Z,6.29
2023-12-30T22:54:41.345Z,6.27
2023-12-30T22:57:09.889Z,6.08
2023-12-30T22:59:38.272Z,5.97
2023-12-30T23:02:06.511Z,5.92
2023-12-30T23:04:34.380Z,5.84
2023-12-30T23:07:02.926Z,5.75
2023-12-30T23:09:32.344Z,5.66
2023-12-30T23:12:00.094Z,5.61
2023-12-30T23:14:27.867Z,5.61
2023-12-30T23:16:55.682Z,5.63
2023-12-30T23:19:23.690Z,5.65
2023-12-30T23:21:51.734Z,5.65
2023-12-30T23:24:19.421Z,5.59
2023-12-30T23:26:48.716Z,5.58
2023-12-30T23:29:16.943Z,5.53
2023-12-30T23:31:45.729Z,5.55
2023-12-30T23:34:13.887Z,5.56
2023-12-30T23:36:42.292Z,5.60
2023-12-30T23:39:10.476Z,5.75
2023-12-30T23:41:38.167Z,5.83
2023-12-30T23:44:07.320Z,5.83
2023-12-30T23:46:35.591Z,5.77
2023-12-30T23:49:03.417Z,5.69
2023-12-30T23:51:31.156Z,5.58
2023-12-30T23:53:59.077Z,5.47
2023-12-30T23:56:27.449Z,5.38
2023-12-30T23:58:55.306Z,5.34
